Terminal Aerodrome Forecast
Issued by NWS

Home | Current Version | Previous Version | Graphics & Text | Print | Product List | Glossary On
Versions: 1 2 3 4 5 6 7 8 9 10 11 12 13 14 15 16 17 18 19 20 21 22 23 24 25 26 27 28 29 30 31 32 33
000
FTUS43 KGLD 011738
TAFMCK
TAF
KMCK 011738Z 0118/0218 34025G35KT P6SM SCT020 BKN070
      TEMPO 0119/0123 BKN020
     FM020000 34012KT P6SM SKC
     FM020200 VRB05KT P6SM SKC
     FM020900 19007KT P6SM SCT090
     FM021400 22008KT P6SM BKN080=

USA.gov is the U.S. government's official web portal to all federal, state and local government web resources and services.